Aérodrome :
LOGIN :

S'inscrire | Disclaimer

   EN    FR    IT 

 










Légende :    VFR   VFR Marginal   IFR   IFR Intensif   IFR Très Intensif
Visi : 
Plafond : 
>= 8 km
>= 3000ft
5 à 8 km
1000 à 3000 ft
1500m à 5 km
500 à 1000 ft
800 à 1500m
200 à 500 ft
< 800m
< 200 ft
Symboles :   Orages  Brouillard  Fortes neiges  Fortes précipitations  Vent > 20 kt
SIGMETs :   Divers  Orages  Givrage  Turbulence  Onde Orograph.  Cendres Volcan.






- Altitude de l'aérodrome : 190 ft
- Code IATA : CAX


EGNC - Carlisle

DERNIER METAR :
  • 221520Z 11008KT 9999 SCT030 07/04 Q0995

METARs EXPIRÉS :
  • 221450Z 13005KT 080V170 9999 SCT030 08/05 Q0995
  • 221420Z 12007KT 090V160 9999 BKN025 08/05 Q0994
  • 221350Z 10007KT 9999 BKN022 08/06 Q0994
  • 221320Z 08009KT 9999 -RA BKN020 08/06 Q0994
  • 221250Z VRB03KT 9999 BKN020 08/06 Q0995

TAF TAF EGNC
Valide du 22 à 15h jusqu'au 22 à 18h UTC


221356Z 2215/2218 08009KT 9999 SCT008
PROB30
TEMPO 2215/2218 9000 -RADZ BKN014
ATIS : +44 1228 574 123



MET'MAP, la Météo Aéronautique d'un coup d'oeil ! - Copyright ORBIFLY Décembre 2007 - Disclaimer

ORBIFLY MET'MAP TEAM :

Programmation & Développement : Alexandra Zaïnal
Conception & Développement : Baudouin d'Aumeries
Co-Programmation & Développement : Marc-Olivier Méhu
Soutien technique & logistique : Manuel Goepfert

Contact : metmap@orbifly.com




SOURCES & CREDITS :

   NOAA